Time;durP1;ratioP1;P1;durP2;ratioP2;P2;SDS_P1;SDS_P2;PMS_P1;PMS_P2;Temp;Humidity;BMP_temperature;BMP_pressure;BME280_temperature;BME280_humidity;BME280_pressure;Samples;Min_cycle;Max_cycle;Signal;HPM_P1;HPM_P2
2022/07/06 00:01:07;;;;;;;3.00;2.90;;;;;;;14.25;100.00;97375.34;4986403;28;20210;-63
2022/07/06 00:03:35;;;;;;;6.20;3.03;;;;;;;14.24;100.00;97380.88;4966805;28;20443;-63
2022/07/06 00:06:04;;;;;;;3.27;2.97;;;;;;;14.19;100.00;97378.81;4976590;28;20251;-63
2022/07/06 00:08:32;;;;;;;4.83;2.90;;;;;;;14.17;100.00;97383.53;4964933;28;20221;-65
2022/07/06 00:11:00;;;;;;;3.23;2.60;;;;;;;14.15;100.00;97381.03;4959038;28;20345;-63
2022/07/06 00:13:30;;;;;;;2.47;2.37;;;;;;;14.13;100.00;97379.63;4945216;28;20372;-62
2022/07/06 00:15:58;;;;;;;4.90;2.60;;;;;;;14.08;100.00;97377.56;4977607;28;20246;-64
2022/07/06 00:18:27;;;;;;;2.70;2.50;;;;;;;14.04;100.00;97371.00;4960602;28;20229;-63
2022/07/06 00:20:55;;;;;;;2.70;2.60;;;;;;;14.00;100.00;97375.09;4961133;28;20692;-64
2022/07/06 00:23:23;;;;;;;2.67;2.57;;;;;;;13.92;100.00;97375.28;4958966;28;20873;-63
2022/07/06 00:25:52;;;;;;;2.63;2.53;;;;;;;13.84;100.00;97371.78;4985322;28;20235;-64
2022/07/06 00:28:20;;;;;;;2.67;2.57;;;;;;;13.77;100.00;97370.91;4936610;28;20313;-64
2022/07/06 00:30:50;;;;;;;2.77;2.63;;;;;;;13.76;100.00;97371.94;4982582;28;20284;-64
2022/07/06 00:33:19;;;;;;;2.47;2.37;;;;;;;13.71;100.00;97377.03;4961660;28;20940;-64
2022/07/06 00:35:47;;;;;;;2.17;2.00;;;;;;;13.68;100.00;97382.75;4978235;28;20892;-64
2022/07/06 00:38:15;;;;;;;2.87;2.67;;;;;;;13.65;100.00;97373.34;4957312;28;20260;-64
2022/07/06 00:40:43;;;;;;;3.17;2.23;;;;;;;13.69;100.00;97373.75;4988361;28;20420;-64
2022/07/06 00:43:11;;;;;;;2.60;2.50;;;;;;;13.70;100.00;97375.38;4929321;28;21382;-63
2022/07/06 00:45:40;;;;;;;2.90;2.70;;;;;;;13.71;100.00;97375.22;4983937;28;20205;-64
2022/07/06 00:48:09;;;;;;;2.53;2.43;;;;;;;13.68;100.00;97375.59;4984450;28;20669;-63
2022/07/06 00:50:38;;;;;;;2.80;2.70;;;;;;;13.64;100.00;97376.19;4962629;28;20267;-65
2022/07/06 00:53:07;;;;;;;2.63;2.40;;;;;;;13.61;100.00;97377.41;4960244;28;20289;-62
2022/07/06 00:55:39;;;;;;;2.50;2.40;;;;;;;13.56;100.00;97378.00;4983957;28;20220;-64
2022/07/06 00:58:08;;;;;;;2.67;2.50;;;;;;;13.51;100.00;97371.63;4927332;28;20307;-62
2022/07/06 01:00:37;;;;;;;2.23;2.13;;;;;;;13.48;100.00;97367.53;4982207;28;20219;-64
2022/07/06 01:03:05;;;;;;;2.87;2.77;;;;;;;13.43;100.00;97375.28;4958640;28;20216;-62
2022/07/06 01:05:35;;;;;;;2.80;2.70;;;;;;;13.38;100.00;97367.88;4965542;28;20212;-64
2022/07/06 01:08:04;;;;;;;2.47;2.40;;;;;;;13.28;100.00;97360.22;4962728;28;20228;-62
2022/07/06 01:10:32;;;;;;;3.00;2.90;;;;;;;13.36;100.00;97369.06;4985179;28;20229;-62
2022/07/06 01:13:01;;;;;;;3.00;2.80;;;;;;;13.39;100.00;97366.84;4951079;28;20743;-62
2022/07/06 01:15:29;;;;;;;2.77;2.67;;;;;;;13.34;100.00;97366.63;4976884;28;20345;-64
2022/07/06 01:17:57;;;;;;;2.77;2.67;;;;;;;13.25;100.00;97360.63;4973157;28;20304;-63
2022/07/06 01:20:27;;;;;;;3.60;3.40;;;;;;;13.31;100.00;97356.38;4951166;28;20815;-64
2022/07/06 01:22:56;;;;;;;3.13;2.93;;;;;;;13.26;100.00;97359.63;4975905;28;20263;-62
2022/07/06 01:25:25;;;;;;;3.27;2.97;;;;;;;13.20;100.00;97360.41;4971329;28;20206;-64
2022/07/06 01:27:53;;;;;;;3.40;3.20;;;;;;;13.14;100.00;97364.66;4982893;28;20256;-62
2022/07/06 01:30:21;;;;;;;3.10;3.00;;;;;;;13.08;100.00;97361.97;4928822;28;20483;-64
2022/07/06 01:32:49;;;;;;;3.27;3.17;;;;;;;13.03;100.00;97358.03;4928543;28;20221;-63
2022/07/06 01:35:17;;;;;;;3.27;3.07;;;;;;;12.99;100.00;97359.44;4958743;28;20225;-62
2022/07/06 01:37:47;;;;;;;3.13;2.93;;;;;;;13.05;100.00;97359.69;4983685;28;20248;-65
2022/07/06 01:40:15;;;;;;;3.37;3.17;;;;;;;12.95;100.00;97352.88;4958501;28;20362;-60
2022/07/06 01:42:43;;;;;;;3.10;3.00;;;;;;;12.90;100.00;97350.00;4984682;28;20212;-64
2022/07/06 01:45:12;;;;;;;3.20;2.90;;;;;;;12.96;100.00;97353.72;4990586;28;20201;-62
2022/07/06 01:47:40;;;;;;;3.17;2.97;;;;;;;12.90;100.00;97352.66;4937889;28;21282;-64
2022/07/06 01:50:09;;;;;;;2.47;2.33;;;;;;;12.89;100.00;97351.00;4985561;28;20756;-63
2022/07/06 01:52:37;;;;;;;3.10;3.00;;;;;;;12.85;100.00;97352.41;4988542;28;20367;-63
2022/07/06 01:55:08;;;;;;;3.13;2.93;;;;;;;12.80;100.00;97357.50;4965637;28;20275;-62
2022/07/06 01:57:36;;;;;;;3.07;2.83;;;;;;;12.70;100.00;97350.69;4986458;28;20523;-64
2022/07/06 02:00:07;;;;;;;3.20;3.00;;;;;;;12.64;100.00;97351.44;4989979;28;20201;-63
2022/07/06 02:02:35;;;;;;;3.17;2.97;;;;;;;12.65;100.00;97352.28;4950307;28;20477;-63
2022/07/06 02:05:04;;;;;;;3.30;3.10;;;;;;;12.66;100.00;97352.06;4960523;28;20736;-65
2022/07/06 02:07:32;;;;;;;4.27;3.00;;;;;;;12.63;100.00;97354.31;4981933;28;20304;-62
2022/07/06 02:10:00;;;;;;;3.17;3.07;;;;;;;12.55;100.00;97355.25;4961591;28;20245;-63
2022/07/06 02:12:29;;;;;;;3.70;3.53;;;;;;;12.51;100.00;97352.19;4964621;28;20291;-62
2022/07/06 02:14:58;;;;;;;4.50;3.40;;;;;;;12.50;100.00;97363.81;4983269;28;20275;-64
2022/07/06 02:17:26;;;;;;;3.57;3.37;;;;;;;12.45;100.00;97358.25;4976914;28;20644;-62
2022/07/06 02:19:54;;;;;;;3.27;3.07;;;;;;;12.41;100.00;97363.13;4955880;28;20273;-63
2022/07/06 02:22:22;;;;;;;3.40;3.20;;;;;;;12.37;100.00;97353.91;4989416;28;20213;-64
2022/07/06 02:24:50;;;;;;;3.97;3.63;;;;;;;12.34;100.00;97362.25;4962417;28;21413;-63
2022/07/06 02:27:18;;;;;;;3.40;3.20;;;;;;;12.33;100.00;97373.91;4963071;28;20265;-64
2022/07/06 02:29:48;;;;;;;3.37;3.20;;;;;;;12.34;100.00;97366.72;4985030;28;20259;-64
2022/07/06 02:32:16;;;;;;;3.57;3.37;;;;;;;12.28;100.00;97361.19;4987291;28;20618;-65
2022/07/06 02:34:44;;;;;;;3.60;3.30;;;;;;;12.21;100.00;97359.47;4929854;28;20221;-64
2022/07/06 02:37:12;;;;;;;4.10;3.90;;;;;;;12.18;100.00;97373.97;4988134;28;20221;-64
2022/07/06 02:39:40;;;;;;;4.20;3.60;;;;;;;12.18;100.00;97366.00;4985590;28;20284;-63
2022/07/06 02:42:09;;;;;;;3.77;3.43;;;;;;;12.19;100.00;97364.97;4957618;28;20362;-64
2022/07/06 02:44:37;;;;;;;3.77;3.57;;;;;;;12.13;100.00;97363.91;4983746;28;20213;-62
2022/07/06 02:47:06;;;;;;;3.00;2.87;;;;;;;12.10;100.00;97366.09;4986761;28;20728;-64
2022/07/06 02:49:34;;;;;;;2.90;2.70;;;;;;;12.10;100.00;97376.72;4939958;28;20690;-60
2022/07/06 02:52:03;;;;;;;2.90;2.70;;;;;;;12.13;100.00;97381.69;4986684;28;20236;-63
2022/07/06 02:54:31;;;;;;;3.60;3.30;;;;;;;12.09;100.00;97394.50;4987452;28;20263;-62
2022/07/06 02:56:59;;;;;;;3.10;2.90;;;;;;;12.14;100.00;97393.94;4979694;28;20828;-63
2022/07/06 02:59:27;;;;;;;3.00;2.80;;;;;;;12.15;100.00;97384.97;4906975;28;20694;-63
2022/07/06 03:01:55;;;;;;;3.23;3.03;;;;;;;12.13;100.00;97401.06;4984830;28;20255;-62
2022/07/06 03:04:25;;;;;;;3.60;3.40;;;;;;;12.13;100.00;97401.06;4941908;28;20355;-65
2022/07/06 03:06:53;;;;;;;3.67;3.37;;;;;;;12.13;100.00;97397.63;4984511;28;20263;-62
2022/07/06 03:09:21;;;;;;;3.83;3.50;;;;;;;12.14;100.00;97401.91;4985967;28;20500;-63
2022/07/06 03:11:49;;;;;;;3.50;3.20;;;;;;;12.12;100.00;97410.06;4983741;28;20272;-62
2022/07/06 03:14:17;;;;;;;3.90;3.57;;;;;;;12.12;100.00;97412.72;4962844;28;20316;-63
2022/07/06 03:16:46;;;;;;;3.57;3.37;;;;;;;12.10;100.00;97412.06;4953163;28;20797;-61
2022/07/06 03:19:18;;;;;;;4.37;4.10;;;;;;;12.06;100.00;97410.81;4982872;28;20686;-58
2022/07/06 03:21:47;;;;;;;4.00;3.80;;;;;;;12.09;100.00;97422.88;4907922;28;20257;-61
2022/07/06 03:24:16;;;;;;;3.30;3.10;;;;;;;12.09;100.00;97425.53;4983094;28;20645;-62
2022/07/06 03:26:44;;;;;;;3.73;3.53;;;;;;;12.12;100.00;97427.81;4982162;28;20213;-63
2022/07/06 03:29:12;;;;;;;3.60;3.40;;;;;;;12.18;100.00;97426.25;4961460;28;20298;-63
2022/07/06 03:31:40;;;;;;;3.80;3.60;;;;;;;12.22;100.00;97428.34;4984779;28;20233;-59
2022/07/06 03:34:08;;;;;;;4.30;3.90;;;;;;;12.21;100.00;97431.19;4958266;28;20920;-61
2022/07/06 03:36:37;;;;;;;4.80;4.20;;;;;;;12.11;100.00;97427.00;4924762;28;20453;-61
2022/07/06 03:39:08;;;;;;;3.90;3.70;;;;;;;12.19;100.00;97436.69;4970718;28;20561;-62
2022/07/06 03:41:36;;;;;;;3.63;3.43;;;;;;;12.26;100.00;97439.41;4909005;28;20279;-61
2022/07/06 03:44:04;;;;;;;3.90;3.60;;;;;;;12.30;100.00;97425.56;4980063;28;20194;-60
2022/07/06 03:46:32;;;;;;;4.00;3.70;;;;;;;12.33;100.00;97434.16;4958801;28;20621;-63
2022/07/06 03:49:01;;;;;;;3.63;3.43;;;;;;;12.35;100.00;97429.50;4979771;28;21171;-61
2022/07/06 03:51:29;;;;;;;3.53;3.23;;;;;;;12.37;100.00;97425.63;4983153;28;20229;-62
2022/07/06 03:53:57;;;;;;;3.50;3.30;;;;;;;12.41;100.00;97423.41;4980211;28;20396;-63
2022/07/06 03:56:29;;;;;;;4.80;3.73;;;;;;;12.45;100.00;97422.00;4935193;28;20375;-62
2022/07/06 03:58:58;;;;;;;3.70;3.50;;;;;;;12.53;100.00;97421.91;4981834;28;20367;-63
2022/07/06 04:01:27;;;;;;;5.43;4.20;;;;;;;12.60;100.00;97427.25;4984063;28;20209;-62
2022/07/06 04:03:55;;;;;;;3.80;3.60;;;;;;;12.70;100.00;97430.44;4960370;28;20236;-59
2022/07/06 04:06:23;;;;;;;3.93;3.50;;;;;;;12.80;100.00;97426.63;4984638;28;20328;-63
2022/07/06 04:08:52;;;;;;;3.88;3.63;;;;;;;12.96;100.00;97428.19;4977608;28;20551;-63
2022/07/06 04:11:20;;;;;;;4.20;3.90;;;;;;;13.09;100.00;97432.78;4936792;28;20256;-61
2022/07/06 04:13:49;;;;;;;4.20;4.00;;;;;;;13.30;100.00;97445.19;4979892;28;20197;-60
2022/07/06 04:16:17;;;;;;;3.83;3.53;;;;;;;13.49;100.00;97435.72;4979009;28;20498;-63
2022/07/06 04:18:45;;;;;;;3.90;3.70;;;;;;;13.66;100.00;97446.03;4966868;28;20423;-60
2022/07/06 04:21:13;;;;;;;3.50;3.30;;;;;;;13.71;100.00;97454.25;4967688;28;20291;-62
2022/07/06 04:23:42;;;;;;;3.47;3.27;;;;;;;13.71;100.00;97457.75;4980861;28;20220;-62
2022/07/06 04:26:11;;;;;;;3.87;3.57;;;;;;;13.78;100.00;97457.75;4961896;28;20209;-61
2022/07/06 04:28:39;;;;;;;3.50;3.30;;;;;;;13.92;100.00;97455.97;4962562;28;20237;-62
2022/07/06 04:31:09;;;;;;;3.30;3.10;;;;;;;14.07;100.00;97447.84;4984265;28;20231;-61
2022/07/06 04:33:37;;;;;;;3.80;3.43;;;;;;;14.20;100.00;97444.41;4973130;28;20650;-63
2022/07/06 04:36:05;;;;;;;3.30;3.10;;;;;;;14.36;100.00;97445.88;4988085;28;20298;-60
2022/07/06 04:38:33;;;;;;;3.93;3.73;;;;;;;14.54;100.00;97455.13;4984606;28;20225;-62
2022/07/06 04:41:02;;;;;;;6.47;3.93;;;;;;;14.72;100.00;97458.06;4978123;28;20205;-60
2022/07/06 04:43:30;;;;;;;3.80;3.57;;;;;;;14.93;100.00;97466.09;4940458;28;20209;-61
2022/07/06 04:45:58;;;;;;;3.63;3.33;;;;;;;15.02;100.00;97465.69;4984869;28;20216;-65
2022/07/06 04:48:28;;;;;;;3.53;3.33;;;;;;;15.05;100.00;97462.59;4981631;28;20639;-64
2022/07/06 04:50:56;;;;;;;3.53;3.33;;;;;;;15.04;100.00;97465.47;4972062;28;20243;-64
2022/07/06 04:53:24;;;;;;;3.57;3.27;;;;;;;15.23;100.00;97463.81;4981787;28;20202;-63
2022/07/06 04:55:52;;;;;;;4.00;3.70;;;;;;;15.43;100.00;97468.31;4986415;28;20205;-65
2022/07/06 04:58:20;;;;;;;3.50;3.30;;;;;;;15.40;100.00;97455.38;4938276;28;21138;-62
2022/07/06 05:00:49;;;;;;;3.70;3.50;;;;;;;15.37;100.00;97474.47;4983543;28;20196;-65
2022/07/06 05:03:17;;;;;;;4.43;3.00;;;;;;;15.54;100.00;97469.53;4974097;28;20209;-62
2022/07/06 05:05:46;;;;;;;3.67;3.37;;;;;;;15.70;100.00;97470.91;4982175;28;20202;-65
2022/07/06 05:08:15;;;;;;;3.93;3.13;;;;;;;15.87;100.00;97474.75;4981344;28;20228;-62
2022/07/06 05:10:43;;;;;;;2.70;2.60;;;;;;;15.95;100.00;97479.09;4986854;28;20216;-64
2022/07/06 05:13:11;;;;;;;3.13;2.93;;;;;;;16.20;100.00;97479.19;4952723;28;20552;-63
2022/07/06 05:15:40;;;;;;;4.30;3.17;;;;;;;16.43;100.00;97479.69;4982528;28;20248;-63
2022/07/06 05:18:08;;;;;;;3.23;3.03;;;;;;;16.35;100.00;97486.09;4989507;28;20315;-62
2022/07/06 05:20:36;;;;;;;5.53;3.83;;;;;;;16.17;100.00;97486.81;4982939;28;20548;-65
2022/07/06 05:23:06;;;;;;;3.07;2.87;;;;;;;16.19;100.00;97490.06;4987968;28;20661;-62
2022/07/06 05:25:34;;;;;;;3.17;2.97;;;;;;;16.11;100.00;97491.16;4990359;28;20596;-65
2022/07/06 05:28:02;;;;;;;3.20;3.03;;;;;;;16.11;100.00;97491.16;4979220;28;20597;-62
2022/07/06 05:30:31;;;;;;;3.33;3.13;;;;;;;16.39;100.00;97489.19;4960667;28;20713;-64
2022/07/06 05:32:59;;;;;;;4.10;3.33;;;;;;;16.64;100.00;97494.59;4990078;28;20225;-62
2022/07/06 05:35:27;;;;;;;3.70;3.33;;;;;;;16.94;100.00;97496.66;4984536;28;20202;-64
2022/07/06 05:38:17;;;;;;;3.57;2.97;;;;;;;17.18;100.00;97496.88;4987082;28;20315;-63
2022/07/06 05:40:45;;;;;;;3.40;3.20;;;;;;;17.16;100.00;97496.28;4988027;28;20240;-63
2022/07/06 05:43:13;;;;;;;3.03;2.83;;;;;;;16.70;100.00;97504.41;4984545;28;20276;-62
2022/07/06 05:45:41;;;;;;;3.27;2.97;;;;;;;16.56;100.00;97511.69;4942594;28;20221;-65
2022/07/06 05:50:55;;;;;;;3.20;3.00;;;;;;;17.36;100.00;97499.63;4980448;28;20657;-64
2022/07/06 05:53:24;;;;;;;3.90;2.63;;;;;;;17.83;99.18;97505.56;4989804;28;20739;-61
2022/07/06 05:55:54;;;;;;;3.20;2.90;;;;;;;18.06;96.92;97500.38;4979807;28;20217;-65
2022/07/06 05:58:24;;;;;;;2.40;2.30;;;;;;;18.27;91.93;97513.53;4983297;28;20248;-63
2022/07/06 06:00:53;;;;;;;3.10;2.97;;;;;;;17.91;93.80;97510.63;4967669;28;20450;-65
2022/07/06 06:03:21;;;;;;;2.83;2.70;;;;;;;17.57;99.66;97508.28;4942897;28;20553;-62
2022/07/06 06:05:50;;;;;;;2.53;2.30;;;;;;;17.41;100.00;97500.81;4980243;28;20312;-63
2022/07/06 06:08:18;;;;;;;3.07;2.77;;;;;;;17.24;100.00;97493.34;4989327;28;20217;-65
2022/07/06 06:10:48;;;;;;;2.93;2.73;;;;;;;17.17;100.00;97501.44;4981682;28;20397;-64
2022/07/06 06:13:16;;;;;;;2.93;2.77;;;;;;;16.99;100.00;97501.38;4990954;28;20204;-65
2022/07/06 06:15:44;;;;;;;2.83;2.70;;;;;;;17.04;100.00;97502.38;4969378;28;20263;-64
2022/07/06 06:18:12;;;;;;;3.50;3.20;;;;;;;17.19;100.00;97495.84;4985409;28;20668;-65
2022/07/06 06:20:41;;;;;;;3.40;3.10;;;;;;;17.40;100.00;97508.03;4935665;28;20209;-63
2022/07/06 06:23:09;;;;;;;3.53;3.30;;;;;;;17.78;100.00;97515.06;4984154;28;20213;-65
2022/07/06 06:25:38;;;;;;;6.03;2.60;;;;;;;17.86;100.00;97505.13;4984686;28;20213;-60
2022/07/06 06:28:10;;;;;;;6.50;3.30;;;;;;;18.30;97.81;97516.59;4985813;28;20225;-65
2022/07/06 06:30:38;;;;;;;3.30;3.10;;;;;;;18.30;94.99;97499.66;4982254;28;20201;-62
2022/07/06 06:33:08;;;;;;;2.80;2.60;;;;;;;18.17;96.88;97503.34;4973491;28;21708;-65
2022/07/06 06:35:36;;;;;;;2.90;2.70;;;;;;;17.82;98.11;97502.06;4939425;28;20225;-61
2022/07/06 06:38:04;;;;;;;2.30;2.20;;;;;;;17.47;100.00;97507.97;4985249;28;20598;-65
2022/07/06 06:40:33;;;;;;;2.93;2.63;;;;;;;17.69;100.00;97499.53;4986944;28;20210;-62
2022/07/06 06:43:01;;;;;;;2.80;2.60;;;;;;;18.17;100.00;97498.81;4986039;28;20256;-65
2022/07/06 06:45:31;;;;;;;4.67;2.67;;;;;;;18.45;96.78;97494.75;4986864;28;20208;-62
2022/07/06 06:47:59;;;;;;;2.60;2.50;;;;;;;18.75;95.06;97495.75;4973356;28;20225;-63
2022/07/06 06:50:27;;;;;;;4.67;3.77;;;;;;;18.92;94.20;97494.03;4942479;28;20756;-61
2022/07/06 06:52:55;;;;;;;3.00;2.67;;;;;;;18.96;92.75;97505.16;4985491;28;20205;-64
2022/07/06 06:55:24;;;;;;;4.00;2.77;;;;;;;19.00;88.49;97495.63;4988128;28;20282;-62
2022/07/06 06:57:52;;;;;;;2.87;2.67;;;;;;;19.16;86.23;97507.56;4985610;28;20486;-65
2022/07/06 07:00:20;;;;;;;2.83;2.63;;;;;;;19.05;89.10;97503.78;4987043;28;20225;-64
2022/07/06 07:02:50;;;;;;;7.40;2.70;;;;;;;19.24;88.08;97509.09;4968720;28;20220;-64
2022/07/06 07:05:18;;;;;;;3.00;2.80;;;;;;;19.45;85.76;97506.88;4944083;28;20237;-65
2022/07/06 07:07:46;;;;;;;2.50;2.30;;;;;;;19.64;83.35;97507.56;4977488;28;20374;-65
2022/07/06 07:10:14;;;;;;;2.93;2.80;;;;;;;19.83;80.83;97510.94;4986609;28;20220;-65
2022/07/06 07:12:46;;;;;;;3.30;2.87;;;;;;;20.00;81.70;97505.69;4985602;28;20947;-64
2022/07/06 07:15:15;;;;;;;2.67;2.57;;;;;;;20.05;79.32;97513.84;4982438;28;20657;-64
2022/07/06 07:17:43;;;;;;;4.20;2.90;;;;;;;20.16;77.08;97514.06;4969277;28;20423;-65
2022/07/06 07:20:13;;;;;;;2.60;2.40;;;;;;;20.04;78.87;97514.91;4987866;28;20700;-62
2022/07/06 07:22:41;;;;;;;2.70;2.60;;;;;;;20.32;74.36;97513.31;4937881;28;20244;-64
2022/07/06 07:25:09;;;;;;;2.63;2.47;;;;;;;20.49;71.89;97512.56;4981040;28;20792;-64
2022/07/06 07:27:38;;;;;;;3.30;2.90;;;;;;;20.60;68.58;97500.94;4985920;28;20224;-63
2022/07/06 07:30:07;;;;;;;3.17;2.53;;;;;;;20.69;71.04;97501.38;4983107;28;20205;-65
2022/07/06 07:32:35;;;;;;;2.43;2.23;;;;;;;20.78;67.95;97507.97;4975701;28;20728;-63
2022/07/06 07:35:04;;;;;;;2.43;2.23;;;;;;;20.86;61.64;97503.28;4985704;28;20223;-65
2022/07/06 07:37:33;;;;;;;2.20;2.10;;;;;;;20.82;63.42;97497.56;4937515;28;20277;-63
2022/07/06 07:40:02;;;;;;;2.20;2.10;;;;;;;21.03;63.73;97501.44;4985005;28;20668;-65
2022/07/06 07:42:30;;;;;;;2.70;2.50;;;;;;;21.21;61.28;97508.47;4985416;28;20621;-63
2022/07/06 07:44:58;;;;;;;2.20;2.10;;;;;;;21.26;60.67;97507.72;4984799;28;20353;-64
2022/07/06 07:47:26;;;;;;;2.83;1.97;;;;;;;21.03;63.44;97504.13;4985579;28;20594;-63
2022/07/06 07:49:55;;;;;;;2.30;2.20;;;;;;;21.03;64.02;97496.06;4968247;28;20303;-64
2022/07/06 07:52:23;;;;;;;2.70;2.50;;;;;;;21.31;59.50;97494.31;4948311;28;20633;-62
2022/07/06 07:54:52;;;;;;;2.77;2.57;;;;;;;21.35;58.12;97498.16;4950693;28;20251;-64
2022/07/06 07:57:41;;;;;;;2.47;2.13;;;;;;;21.52;59.74;97500.03;4974685;28;20225;-65
2022/07/06 08:00:10;;;;;;;2.33;2.20;;;;;;;21.57;59.03;97502.78;4979099;28;20205;-64
2022/07/06 08:02:39;;;;;;;1.87;1.87;;;;;;;21.73;56.49;97509.25;4986287;28;20209;-64
2022/07/06 08:05:08;;;;;;;2.40;2.20;;;;;;;21.72;56.87;97504.94;4965465;28;20237;-64
2022/07/06 08:07:36;;;;;;;2.10;1.70;;;;;;;22.04;54.39;97503.44;4983183;28;20267;-65
2022/07/06 08:10:07;;;;;;;2.27;1.90;;;;;;;22.37;53.21;97509.78;4940814;28;21043;-63
2022/07/06 08:12:35;;;;;;;2.17;2.07;;;;;;;22.39;49.84;97500.38;4986829;28;20677;-65
2022/07/06 08:15:09;;;;;;;2.37;2.17;;;;;;;22.57;50.27;97509.22;4985170;28;20284;-65
2022/07/06 08:17:39;;;;;;;2.30;2.20;;;;;;;22.74;51.40;97505.63;4985715;28;20244;-65
2022/07/06 08:20:08;;;;;;;4.67;3.10;;;;;;;22.82;49.21;97505.13;4969113;28;20247;-63
2022/07/06 08:22:36;;;;;;;2.23;2.13;;;;;;;22.73;46.75;97498.56;4986292;28;20220;-65
2022/07/06 08:25:07;;;;;;;2.27;2.07;;;;;;;22.86;48.01;97510.81;4937075;28;20737;-62
2022/07/06 08:27:35;;;;;;;2.27;2.17;;;;;;;22.40;49.82;97504.69;4985411;28;20328;-63
2022/07/06 08:30:05;;;;;;;2.40;2.27;;;;;;;22.68;49.64;97504.72;4979233;28;20367;-63
2022/07/06 08:32:33;;;;;;;2.00;1.90;;;;;;;22.30;47.90;97509.16;4986134;28;20202;-65
2022/07/06 08:35:21;;;;;;;2.17;2.07;;;;;;;22.61;48.11;97504.13;4978945;28;20521;-64
2022/07/06 08:37:49;;;;;;;2.57;2.40;;;;;;;22.52;47.45;97501.84;4982680;28;20599;-63
2022/07/06 08:40:19;;;;;;;2.07;1.97;;;;;;;22.60;45.85;97500.59;4984663;28;20393;-65
2022/07/06 08:42:49;;;;;;;2.00;1.90;;;;;;;22.59;46.14;97500.88;4940467;28;20213;-63
2022/07/06 08:45:17;;;;;;;1.80;1.70;;;;;;;22.82;48.00;97503.25;4981798;28;20647;-64
2022/07/06 08:47:45;;;;;;;2.00;1.90;;;;;;;22.80;47.04;97504.59;4986281;28;20228;-63
2022/07/06 08:50:14;;;;;;;2.13;1.87;;;;;;;22.67;45.65;97511.22;4967978;28;20676;-64
2022/07/06 08:52:42;;;;;;;2.27;2.10;;;;;;;22.87;44.85;97502.47;4987476;28;20312;-65
2022/07/06 08:55:11;;;;;;;2.40;2.23;;;;;;;23.10;44.02;97498.63;4984004;28;20201;-65
2022/07/06 08:57:40;;;;;;;3.90;2.27;;;;;;;22.70;45.24;97494.50;4939666;28;20229;-63
2022/07/06 09:00:10;;;;;;;2.20;2.10;;;;;;;22.83;45.93;97498.66;4978747;28;20247;-64
2022/07/06 09:02:38;;;;;;;2.00;1.83;;;;;;;23.06;44.32;97491.28;4982274;28;20194;-63
2022/07/06 09:05:08;;;;;;;1.87;1.77;;;;;;;23.26;44.46;97487.94;4961819;28;20466;-63
2022/07/06 09:07:36;;;;;;;2.23;1.87;;;;;;;23.26;44.55;97491.50;4988558;28;20228;-64
2022/07/06 09:10:24;;;;;;;1.93;1.83;;;;;;;23.39;42.15;97501.03;4985127;28;20202;-65
2022/07/06 09:12:54;;;;;;;2.40;2.10;;;;;;;23.48;41.19;97487.84;4941217;28;20315;-62
2022/07/06 09:15:29;;;;;;;2.20;1.67;;;;;;;23.19;42.10;97495.44;4981213;28;20587;-62
2022/07/06 09:17:58;;;;;;;2.03;1.80;;;;;;;23.27;40.91;97489.59;4977428;28;20225;-62
2022/07/06 09:20:26;;;;;;;3.07;2.80;;;;;;;23.51;41.11;97492.75;4972450;28;20229;-66
2022/07/06 09:22:59;;;;;;;2.50;2.13;;;;;;;23.46;41.08;97483.78;4983429;28;20295;-63
2022/07/06 09:25:28;;;;;;;2.30;2.20;;;;;;;23.46;41.67;97486.47;4985458;28;20206;-65
2022/07/06 09:27:58;;;;;;;2.20;2.10;;;;;;;23.78;39.99;97494.50;4956268;28;20279;-62
2022/07/06 09:30:29;;;;;;;2.47;2.10;;;;;;;23.57;41.15;97488.16;4982586;28;20475;-65
2022/07/06 09:32:58;;;;;;;4.53;2.83;;;;;;;23.69;39.93;97482.56;4981984;28;20212;-61
2022/07/06 09:35:28;;;;;;;1.97;1.73;;;;;;;23.42;40.74;97484.31;4970578;28;20477;-65
2022/07/06 09:38:04;;;;;;;3.53;1.90;;;;;;;23.99;38.88;97489.22;4982612;28;20248;-62
2022/07/06 09:40:33;;;;;;;1.97;1.70;;;;;;;24.14;39.14;97494.69;4982605;28;20258;-64
2022/07/06 09:43:11;;;;;;;2.27;1.73;;;;;;;23.80;39.59;97491.56;4979916;28;20205;-62
2022/07/06 09:45:41;;;;;;;2.40;2.30;;;;;;;23.97;39.89;97481.34;4940986;28;20216;-60
2022/07/06 09:48:14;;;;;;;2.30;2.10;;;;;;;24.43;37.66;97491.56;4981792;28;20225;-64
2022/07/06 09:50:44;;;;;;;1.80;1.70;;;;;;;24.28;38.49;97492.31;4987924;28;20206;-64
2022/07/06 09:53:13;;;;;;;1.60;1.50;;;;;;;24.35;37.33;97483.13;4963959;28;20725;-64
2022/07/06 09:55:45;;;;;;;2.47;2.27;;;;;;;24.28;35.96;97491.53;4986037;28;20237;-64
2022/07/06 09:58:15;;;;;;;2.70;1.73;;;;;;;23.77;37.29;97490.19;4981438;28;20427;-64
2022/07/06 10:00:44;;;;;;;2.93;1.60;;;;;;;23.97;37.50;97496.78;4936297;28;20653;-64
2022/07/06 10:03:13;;;;;;;2.30;2.10;;;;;;;23.91;37.96;97501.34;4941780;28;20233;-62
2022/07/06 10:05:42;;;;;;;2.30;2.10;;;;;;;23.76;38.23;97488.53;4986066;28;20296;-64
2022/07/06 10:08:11;;;;;;;2.23;2.03;;;;;;;23.85;37.64;97494.28;4987130;28;20352;-62
2022/07/06 10:10:40;;;;;;;2.43;2.33;;;;;;;23.69;37.99;97471.75;4978894;28;20421;-65
2022/07/06 10:13:10;;;;;;;1.87;1.77;;;;;;;24.31;37.39;97490.16;4983264;28;20618;-63
2022/07/06 10:15:41;;;;;;;2.00;1.70;;;;;;;24.56;37.19;97484.81;4979265;28;20414;-64
2022/07/06 10:18:10;;;;;;;1.57;1.53;;;;;;;24.27;36.33;97489.91;4970788;28;20629;-62
2022/07/06 10:20:40;;;;;;;1.90;1.80;;;;;;;24.24;37.29;97499.34;4972717;28;20509;-64
2022/07/06 10:23:09;;;;;;;2.30;2.20;;;;;;;23.87;36.21;97484.00;4986462;28;20214;-63
2022/07/06 10:25:38;;;;;;;2.10;1.70;;;;;;;23.66;36.77;97481.19;4982378;28;20193;-64
2022/07/06 10:28:14;;;;;;;1.70;1.60;;;;;;;23.49;38.48;97491.38;4987156;28;20625;-63
2022/07/06 10:30:45;;;;;;;2.17;1.60;;;;;;;23.73;36.85;97488.28;4971693;28;20292;-64
2022/07/06 10:33:15;;;;;;;1.57;1.47;;;;;;;23.53;36.69;97485.19;4984299;28;20259;-62
2022/07/06 10:35:43;;;;;;;1.77;1.63;;;;;;;23.92;35.88;97491.34;4943569;28;20248;-65
2022/07/06 10:38:12;;;;;;;1.97;1.37;;;;;;;24.11;35.78;97489.03;4985215;28;20597;-62
2022/07/06 10:43:33;;;;;;;1.60;1.50;;;;;;;24.41;36.86;97490.19;4982899;28;20485;-64
2022/07/06 10:46:07;;;;;;;2.27;1.93;;;;;;;24.37;36.40;97491.81;4970416;28;20213;-64
2022/07/06 10:48:36;;;;;;;1.70;1.67;;;;;;;24.21;36.37;97490.94;4980826;28;20641;-61
2022/07/06 10:51:05;;;;;;;1.63;1.53;;;;;;;23.94;36.66;97492.69;4938697;28;20737;-61
2022/07/06 10:53:35;;;;;;;1.60;1.50;;;;;;;23.51;37.03;97486.50;4984218;28;20236;-63
2022/07/06 10:56:05;;;;;;;6.90;1.90;;;;;;;23.83;37.68;97483.72;4986665;28;20231;-61
2022/07/06 10:58:40;;;;;;;3.17;1.63;;;;;;;24.32;35.33;97481.78;4987793;28;20827;-64
2022/07/06 11:01:10;;;;;;;1.87;1.77;;;;;;;24.41;36.40;97482.06;4984834;28;20247;-62
2022/07/06 11:03:41;;;;;;;3.33;2.17;;;;;;;24.70;36.32;97490.53;4977259;28;20419;-64
2022/07/06 11:06:12;;;;;;;2.20;1.53;;;;;;;24.38;35.52;97485.31;4941370;28;20755;-63
2022/07/06 11:08:54;;;;;;;1.97;1.87;;;;;;;23.69;36.29;97488.81;4984984;28;20918;-63
2022/07/06 11:11:25;;;;;;;1.93;1.83;;;;;;;23.54;37.66;97491.41;4978156;28;20366;-64
2022/07/06 11:13:55;;;;;;;1.77;1.67;;;;;;;23.91;36.57;97485.09;4986965;28;20201;-63
2022/07/06 11:16:26;;;;;;;2.43;2.20;;;;;;;24.36;35.40;97492.88;4984484;28;20255;-63
2022/07/06 11:19:06;;;;;;;1.87;1.73;;;;;;;24.36;35.30;97482.88;4975330;28;20254;-64
2022/07/06 11:21:39;;;;;;;2.33;2.10;;;;;;;24.64;34.83;97483.50;4940107;28;20287;-63
2022/07/06 11:24:10;;;;;;;1.83;1.73;;;;;;;24.64;33.71;97499.75;4981048;28;20213;-62
2022/07/06 11:26:38;;;;;;;1.83;1.73;;;;;;;24.77;33.83;97484.06;4988040;28;20214;-64
2022/07/06 11:29:09;;;;;;;1.67;1.67;;;;;;;23.91;34.43;97487.81;4982997;28;20205;-62
2022/07/06 11:31:40;;;;;;;1.83;1.50;;;;;;;24.45;34.89;97482.34;4982942;28;20819;-64
2022/07/06 11:34:09;;;;;;;1.63;1.50;;;;;;;24.60;33.98;97484.28;4971051;28;20585;-62
2022/07/06 11:36:38;;;;;;;2.80;2.27;;;;;;;24.20;35.14;97478.47;4937731;28;20687;-63
2022/07/06 11:39:12;;;;;;;2.03;1.60;;;;;;;24.26;35.75;97478.25;4978766;28;20295;-62
2022/07/06 11:41:41;;;;;;;2.00;1.80;;;;;;;24.14;34.45;97489.28;4982436;28;20225;-65
2022/07/06 11:44:17;;;;;;;1.70;1.60;;;;;;;24.18;35.74;97476.06;4984026;28;20513;-62